Time;durP1;ratioP1;P1;durP2;ratioP2;P2;SDS_P1;SDS_P2;PMS_P1;PMS_P2;Temp;Humidity;BMP_temperature;BMP_pressure;BME280_temperature;BME280_humidity;BME280_pressure;Samples;Min_cycle;Max_cycle;Signal;HPM_P1;HPM_P2
2024/02/13 00:01:18;;;;;;;14.82;4.93;;;;;;;;;;4972451;28;20094;-66
2024/02/13 00:03:46;;;;;;;14.07;4.78;;;;;;;;;;4971816;28;20060;-66
2024/02/13 00:06:12;;;;;;;12.90;4.75;;;;;;;;;;4973139;28;20042;-66
2024/02/13 00:08:38;;;;;;;17.70;5.30;;;;;;;;;;4972972;28;20042;-66
2024/02/13 00:11:06;;;;;;;13.48;4.75;;;;;;;;;;4982231;28;20073;-66
2024/02/13 00:13:34;;;;;;;13.98;4.80;;;;;;;;;;4973733;28;20065;-66
2024/02/13 00:16:00;;;;;;;20.23;5.60;;;;;;;;;;4989093;28;20077;-66
2024/02/13 00:18:27;;;;;;;13.70;5.10;;;;;;;;;;4977802;28;20295;-66
2024/02/13 00:20:54;;;;;;;14.05;5.18;;;;;;;;;;4973576;28;20051;-66
2024/02/13 00:23:21;;;;;;;17.10;5.47;;;;;;;;;;4978971;28;20129;-66
2024/02/13 00:25:48;;;;;;;15.40;5.00;;;;;;;;;;4987723;28;20042;-66
2024/02/13 00:28:14;;;;;;;15.52;5.45;;;;;;;;;;4973418;28;20046;-66
2024/02/13 00:30:40;;;;;;;12.07;5.70;;;;;;;;;;4972717;28;20430;-66
2024/02/13 00:33:07;;;;;;;14.20;6.32;;;;;;;;;;4969869;28;20051;-66
2024/02/13 00:35:33;;;;;;;25.15;6.95;;;;;;;;;;4977865;28;20055;-66
2024/02/13 00:37:59;;;;;;;26.92;8.23;;;;;;;;;;4970935;28;20177;-66
2024/02/13 00:40:25;;;;;;;16.63;6.90;;;;;;;;;;4973628;28;20043;-66
2024/02/13 00:42:52;;;;;;;20.85;7.22;;;;;;;;;;4980599;28;20070;-66
2024/02/13 00:45:19;;;;;;;22.58;8.43;;;;;;;;;;4963689;28;20042;-66
2024/02/13 00:47:45;;;;;;;21.63;8.35;;;;;;;;;;4976503;28;20466;-66
2024/02/13 00:50:14;;;;;;;22.73;7.80;;;;;;;;;;4980702;28;20128;-66
2024/02/13 00:52:42;;;;;;;25.83;7.75;;;;;;;;;;4972151;28;20054;-66
2024/02/13 00:55:08;;;;;;;25.05;8.32;;;;;;;;;;4976116;28;20054;-66
2024/02/13 00:57:35;;;;;;;16.73;7.90;;;;;;;;;;4975816;28;20070;-66
2024/02/13 01:00:03;;;;;;;21.48;9.23;;;;;;;;;;4978094;28;20145;-66
2024/02/13 01:02:29;;;;;;;14.88;7.40;;;;;;;;;;4976739;28;20153;-66
2024/02/13 01:04:55;;;;;;;22.45;8.40;;;;;;;;;;4974017;28;20372;-66
2024/02/13 01:07:22;;;;;;;25.40;9.50;;;;;;;;;;4976487;28;20047;-66
2024/02/13 01:09:48;;;;;;;24.90;9.52;;;;;;;;;;4976391;28;20296;-66
2024/02/13 01:12:14;;;;;;;18.52;8.85;;;;;;;;;;4975536;28;20049;-66
2024/02/13 01:14:40;;;;;;;27.08;10.50;;;;;;;;;;4983618;28;20116;-66
2024/02/13 01:17:07;;;;;;;26.00;9.75;;;;;;;;;;4977797;28;20043;-66
2024/02/13 01:19:33;;;;;;;26.45;9.40;;;;;;;;;;4981372;28;20053;-66
2024/02/13 01:22:00;;;;;;;21.08;9.65;;;;;;;;;;4984025;28;20096;-66
2024/02/13 01:24:27;;;;;;;24.65;10.18;;;;;;;;;;4994910;28;20086;-66
2024/02/13 01:26:55;;;;;;;26.27;11.77;;;;;;;;;;4980261;28;20156;-66
2024/02/13 01:29:21;;;;;;;30.23;12.27;;;;;;;;;;4984639;28;20051;-66
2024/02/13 01:31:47;;;;;;;30.15;12.07;;;;;;;;;;4982350;28;20085;-66
2024/02/13 01:34:14;;;;;;;32.65;13.10;;;;;;;;;;4984217;28;20046;-66
2024/02/13 01:36:40;;;;;;;34.90;14.65;;;;;;;;;;4991610;28;20045;-66
2024/02/13 01:39:06;;;;;;;32.05;15.65;;;;;;;;;;4985106;28;20081;-66
2024/02/13 01:41:32;;;;;;;30.15;14.65;;;;;;;;;;4983564;28;20438;-66
2024/02/13 01:43:59;;;;;;;32.63;16.15;;;;;;;;;;4987396;28;20056;-66
2024/02/13 01:46:26;;;;;;;39.22;16.58;;;;;;;;;;4983644;28;20454;-66
2024/02/13 01:48:58;;;;;;;40.80;15.93;;;;;;;;;;5005951;28;20560;-66
2024/02/13 01:51:27;;;;;;;36.38;16.25;;;;;;;;;;4973702;28;20049;-66
2024/02/13 01:53:57;;;;;;;40.25;15.63;;;;;;;;;;4988561;28;20620;-65
2024/02/13 01:56:26;;;;;;;31.05;15.18;;;;;;;;;;4997962;28;20113;-66
2024/02/13 01:58:52;;;;;;;36.60;15.50;;;;;;;;;;4998661;28;20179;-66
2024/02/13 02:01:19;;;;;;;37.55;16.52;;;;;;;;;;4997541;28;20060;-66
2024/02/13 02:03:45;;;;;;;35.80;15.93;;;;;;;;;;4982660;28;20133;-66
2024/02/13 02:06:11;;;;;;;32.55;15.35;;;;;;;;;;4999351;28;20050;-66
2024/02/13 02:08:37;;;;;;;36.13;17.15;;;;;;;;;;4988778;28;20053;-66
2024/02/13 02:11:04;;;;;;;36.80;15.38;;;;;;;;;;4997488;28;20131;-66
2024/02/13 02:13:31;;;;;;;33.45;14.95;;;;;;;;;;4993956;28;20409;-66
2024/02/13 02:15:58;;;;;;;32.28;15.00;;;;;;;;;;4986684;28;20116;-66
2024/02/13 02:18:24;;;;;;;30.08;15.45;;;;;;;;;;4999193;28;20049;-66
2024/02/13 02:20:50;;;;;;;29.50;14.85;;;;;;;;;;4996372;28;21545;-66
2024/02/13 02:23:19;;;;;;;37.35;15.90;;;;;;;;;;4995571;28;20038;-66
2024/02/13 02:25:46;;;;;;;35.33;15.02;;;;;;;;;;4982536;28;20045;-66
2024/02/13 02:28:15;;;;;;;29.25;13.63;;;;;;;;;;4984017;28;20104;-66
2024/02/13 02:30:42;;;;;;;29.70;14.18;;;;;;;;;;4978891;28;20394;-66
2024/02/13 02:33:09;;;;;;;38.83;15.48;;;;;;;;;;4978245;28;20042;-66
2024/02/13 02:35:35;;;;;;;35.70;14.77;;;;;;;;;;4985042;28;20475;-66
2024/02/13 02:38:02;;;;;;;26.67;13.43;;;;;;;;;;4990238;28;20058;-66
2024/02/13 02:40:28;;;;;;;30.30;13.70;;;;;;;;;;4982011;28;20169;-66
2024/02/13 02:42:55;;;;;;;36.88;13.40;;;;;;;;;;4979357;28;20443;-66
2024/02/13 02:45:22;;;;;;;30.10;12.90;;;;;;;;;;4997012;28;20042;-66
2024/02/13 02:47:49;;;;;;;25.60;13.70;;;;;;;;;;4999492;28;20153;-66
2024/02/13 02:50:16;;;;;;;32.22;13.32;;;;;;;;;;4995580;28;20038;-66
2024/02/13 02:52:43;;;;;;;31.13;14.02;;;;;;;;;;4978798;28;20057;-66
2024/02/13 02:55:09;;;;;;;27.13;13.70;;;;;;;;;;4997253;28;20113;-66
2024/02/13 02:57:35;;;;;;;28.60;13.15;;;;;;;;;;4977340;28;20057;-66
2024/02/13 03:00:04;;;;;;;27.65;14.00;;;;;;;;;;4992317;28;20076;-66
2024/02/13 03:02:30;;;;;;;27.52;13.35;;;;;;;;;;4979079;28;20097;-66
2024/02/13 03:04:57;;;;;;;31.73;14.50;;;;;;;;;;4978844;28;20441;-66
2024/02/13 03:07:24;;;;;;;37.33;15.52;;;;;;;;;;4979687;28;20442;-66
2024/02/13 03:09:50;;;;;;;34.92;16.52;;;;;;;;;;4984302;28;20045;-66
2024/02/13 03:12:16;;;;;;;41.72;18.38;;;;;;;;;;4994617;28;20434;-66
2024/02/13 03:14:43;;;;;;;29.60;14.73;;;;;;;;;;4997413;28;20405;-66
2024/02/13 03:17:11;;;;;;;37.17;18.17;;;;;;;;;;4992243;28;20057;-66
2024/02/13 03:19:38;;;;;;;29.02;15.18;;;;;;;;;;4978857;28;20054;-66
2024/02/13 03:22:04;;;;;;;29.98;14.80;;;;;;;;;;4979921;28;20085;-66
2024/02/13 03:24:30;;;;;;;29.58;14.70;;;;;;;;;;4994946;28;20053;-66
2024/02/13 03:26:57;;;;;;;29.35;15.73;;;;;;;;;;4977557;28;20089;-66
2024/02/13 03:29:23;;;;;;;30.05;14.57;;;;;;;;;;4988375;28;20044;-66
2024/02/13 03:31:49;;;;;;;28.48;14.35;;;;;;;;;;4995887;28;20126;-66
2024/02/13 03:34:16;;;;;;;34.72;14.50;;;;;;;;;;4996751;28;20046;-66
2024/02/13 03:36:42;;;;;;;29.00;14.18;;;;;;;;;;4979848;28;20057;-66
2024/02/13 03:39:09;;;;;;;29.15;14.27;;;;;;;;;;4997377;28;20058;-66
2024/02/13 03:41:42;;;;;;;37.03;15.27;;;;;;;;;;4993291;28;20540;-66
2024/02/13 03:44:11;;;;;;;29.85;14.13;;;;;;;;;;4989009;28;20508;-66
2024/02/13 03:46:37;;;;;;;31.35;15.00;;;;;;;;;;4990448;28;20049;-66
2024/02/13 03:49:04;;;;;;;33.42;15.82;;;;;;;;;;4992270;28;20046;-66
2024/02/13 03:51:31;;;;;;;38.85;13.95;;;;;;;;;;4982044;28;20394;-66
2024/02/13 03:53:57;;;;;;;29.90;15.52;;;;;;;;;;4985206;28;20472;-66
2024/02/13 03:56:23;;;;;;;33.47;14.18;;;;;;;;;;4994228;28;20054;-66
2024/02/13 03:58:49;;;;;;;29.27;14.73;;;;;;;;;;4980351;28;20101;-66
2024/02/13 04:01:16;;;;;;;37.70;17.38;;;;;;;;;;4982735;28;20160;-66
2024/02/13 04:03:43;;;;;;;31.15;15.02;;;;;;;;;;4988365;28;20068;-66
2024/02/13 04:06:11;;;;;;;28.10;15.15;;;;;;;;;;4978510;28;20081;-66
2024/02/13 04:08:39;;;;;;;35.33;17.45;;;;;;;;;;4974485;28;20046;-66
2024/02/13 04:11:05;;;;;;;30.55;15.82;;;;;;;;;;4990492;28;20393;-66
2024/02/13 04:13:32;;;;;;;31.83;16.80;;;;;;;;;;4979549;28;20093;-66
2024/02/13 04:15:59;;;;;;;42.20;17.70;;;;;;;;;;4995774;28;20161;-66
2024/02/13 04:18:25;;;;;;;37.15;16.73;;;;;;;;;;4994165;28;20061;-66
2024/02/13 04:20:51;;;;;;;39.00;19.02;;;;;;;;;;4976942;28;20115;-66
2024/02/13 04:23:18;;;;;;;42.22;18.38;;;;;;;;;;4979322;28;20054;-66
2024/02/13 04:25:44;;;;;;;38.90;18.92;;;;;;;;;;4990628;28;20034;-66
2024/02/13 04:28:10;;;;;;;39.72;19.13;;;;;;;;;;4974118;28;20038;-66
2024/02/13 04:30:40;;;;;;;41.15;19.35;;;;;;;;;;4970083;28;20097;-66
2024/02/13 04:33:09;;;;;;;34.60;19.38;;;;;;;;;;4982070;28;20054;-66
2024/02/13 04:35:36;;;;;;;37.05;19.80;;;;;;;;;;4997404;28;20129;-66
2024/02/13 04:38:03;;;;;;;37.03;20.05;;;;;;;;;;4984907;28;20111;-66
2024/02/13 04:40:29;;;;;;;40.10;20.00;;;;;;;;;;4972241;28;20053;-66
2024/02/13 04:42:56;;;;;;;44.40;22.25;;;;;;;;;;4984843;28;20054;-66
2024/02/13 04:45:23;;;;;;;35.30;18.85;;;;;;;;;;4978912;28;20129;-66
2024/02/13 04:47:49;;;;;;;37.38;20.50;;;;;;;;;;4971464;28;20044;-66
2024/02/13 04:50:15;;;;;;;39.65;19.00;;;;;;;;;;4980709;28;21730;-66
2024/02/13 04:52:43;;;;;;;37.45;18.45;;;;;;;;;;4981565;28;21270;-66
2024/02/13 04:55:10;;;;;;;36.75;19.58;;;;;;;;;;4998221;28;20113;-66
2024/02/13 04:57:38;;;;;;;32.33;18.85;;;;;;;;;;4982382;28;20107;-66
2024/02/13 05:00:14;;;;;;;36.47;19.63;;;;;;;;;;4984283;28;20046;-66
2024/02/13 05:02:46;;;;;;;35.38;18.17;;;;;;;;;;4965363;28;20052;-66
2024/02/13 05:07:58;;;;;;;35.60;19.30;;;;;;;;;;4996196;28;20236;-66
2024/02/13 05:10:24;;;;;;;35.90;18.63;;;;;;;;;;4994323;28;20038;-66
2024/02/13 05:12:50;;;;;;;43.60;19.95;;;;;;;;;;4966782;28;20741;-66
2024/02/13 05:15:17;;;;;;;35.35;17.80;;;;;;;;;;4974629;28;20060;-66
2024/02/13 05:17:44;;;;;;;38.05;18.23;;;;;;;;;;4980863;28;20554;-66
2024/02/13 05:20:11;;;;;;;32.00;18.30;;;;;;;;;;4995042;28;20039;-66
2024/02/13 05:22:38;;;;;;;37.47;18.95;;;;;;;;;;4984585;28;20577;-66
2024/02/13 05:25:04;;;;;;;34.08;18.88;;;;;;;;;;4984112;28;20073;-66
2024/02/13 05:27:31;;;;;;;35.60;16.75;;;;;;;;;;4986258;28;20609;-66
2024/02/13 05:30:00;;;;;;;34.42;17.52;;;;;;;;;;4981635;28;20118;-66
2024/02/13 05:32:26;;;;;;;38.58;19.23;;;;;;;;;;4991436;28;20054;-66
2024/02/13 05:34:53;;;;;;;32.88;18.00;;;;;;;;;;4987731;28;20049;-66
2024/02/13 05:37:20;;;;;;;30.75;17.98;;;;;;;;;;4975380;28;20439;-66
2024/02/13 05:39:55;;;;;;;31.63;17.73;;;;;;;;;;5000061;28;20409;-67
2024/02/13 05:42:23;;;;;;;30.60;16.73;;;;;;;;;;5001234;28;20058;-66
2024/02/13 05:44:49;;;;;;;35.95;17.15;;;;;;;;;;4997110;28;20050;-66
2024/02/13 05:47:15;;;;;;;28.38;16.60;;;;;;;;;;4979090;28;20061;-66
2024/02/13 05:49:45;;;;;;;35.35;16.65;;;;;;;;;;4983961;28;20346;-66
2024/02/13 05:52:12;;;;;;;28.73;14.75;;;;;;;;;;4993217;28;20058;-66
2024/02/13 05:54:39;;;;;;;35.65;14.60;;;;;;;;;;4980700;28;20490;-66
2024/02/13 05:57:06;;;;;;;33.30;14.77;;;;;;;;;;4988247;28;20136;-66
2024/02/13 05:59:32;;;;;;;32.88;14.70;;;;;;;;;;4985803;28;20124;-66
2024/02/13 06:01:58;;;;;;;35.83;16.00;;;;;;;;;;4980462;28;20045;-70
2024/02/13 06:04:24;;;;;;;28.88;15.70;;;;;;;;;;4994380;28;20056;-67
2024/02/13 06:06:52;;;;;;;35.20;16.15;;;;;;;;;;4985143;28;20049;-66
2024/02/13 06:09:22;;;;;;;41.53;17.38;;;;;;;;;;4963393;28;20587;-67
2024/02/13 06:11:49;;;;;;;43.80;19.45;;;;;;;;;;4985373;28;20042;-66
2024/02/13 06:14:18;;;;;;;35.58;19.13;;;;;;;;;;4967458;28;20191;-66
2024/02/13 06:16:45;;;;;;;36.20;19.33;;;;;;;;;;4990093;28;20117;-66
2024/02/13 06:19:11;;;;;;;39.35;20.58;;;;;;;;;;5001548;28;20451;-66
2024/02/13 06:21:37;;;;;;;33.20;20.48;;;;;;;;;;5011845;28;20038;-66
2024/02/13 06:24:04;;;;;;;36.70;20.88;;;;;;;;;;5010314;28;20480;-66
2024/02/13 06:26:30;;;;;;;46.13;22.52;;;;;;;;;;4989687;28;20050;-66
2024/02/13 06:28:56;;;;;;;37.42;23.02;;;;;;;;;;4985885;28;20390;-66
2024/02/13 06:31:23;;;;;;;34.58;21.15;;;;;;;;;;4995069;28;20045;-66
2024/02/13 06:33:49;;;;;;;37.08;21.50;;;;;;;;;;5002525;28;20063;-66
2024/02/13 06:36:17;;;;;;;35.15;19.95;;;;;;;;;;4991311;28;20232;-66
2024/02/13 06:38:43;;;;;;;42.65;21.80;;;;;;;;;;4989656;28;20161;-66
2024/02/13 06:41:10;;;;;;;39.83;20.42;;;;;;;;;;4988835;28;20096;-66
2024/02/13 06:43:36;;;;;;;37.05;19.98;;;;;;;;;;4989742;28;20038;-66
2024/02/13 06:46:03;;;;;;;36.00;19.10;;;;;;;;;;4992379;28;20042;-66
2024/02/13 06:48:31;;;;;;;37.95;19.00;;;;;;;;;;4995184;28;20078;-66
2024/02/13 06:50:57;;;;;;;35.03;18.75;;;;;;;;;;4992438;28;20176;-66
2024/02/13 06:53:23;;;;;;;33.67;18.75;;;;;;;;;;4986742;28;20058;-66
2024/02/13 06:55:49;;;;;;;35.25;18.92;;;;;;;;;;4989459;28;20137;-66
2024/02/13 06:58:17;;;;;;;36.00;20.02;;;;;;;;;;4983736;28;20102;-67
2024/02/13 07:00:43;;;;;;;34.85;17.40;;;;;;;;;;4982814;28;20687;-69
2024/02/13 07:03:10;;;;;;;35.83;17.35;;;;;;;;;;4984674;28;20121;-69
2024/02/13 07:05:37;;;;;;;33.35;17.90;;;;;;;;;;4984617;28;20087;-69
2024/02/13 07:08:03;;;;;;;31.85;17.98;;;;;;;;;;4982692;28;20142;-69
2024/02/13 07:10:30;;;;;;;34.75;17.77;;;;;;;;;;4982479;28;20125;-69
2024/02/13 07:12:58;;;;;;;37.92;17.05;;;;;;;;;;4985176;28;20403;-69
2024/02/13 07:15:24;;;;;;;32.28;16.58;;;;;;;;;;4970823;28;20108;-66
2024/02/13 07:17:51;;;;;;;37.55;18.90;;;;;;;;;;4996104;28;20049;-69
2024/02/13 07:20:17;;;;;;;34.90;15.68;;;;;;;;;;4983109;28;20107;-69
2024/02/13 07:22:43;;;;;;;31.40;15.40;;;;;;;;;;4982916;28;21064;-70
2024/02/13 07:25:09;;;;;;;27.48;14.90;;;;;;;;;;4976990;28;20129;-69
2024/02/13 07:27:37;;;;;;;26.67;13.73;;;;;;;;;;4981854;28;20098;-69
2024/02/13 07:30:06;;;;;;;31.25;14.38;;;;;;;;;;4982987;28;20048;-70
2024/02/13 07:32:33;;;;;;;27.55;13.43;;;;;;;;;;4977303;28;20058;-69
2024/02/13 07:35:03;;;;;;;28.05;14.18;;;;;;;;;;4973563;28;20046;-69
2024/02/13 07:37:32;;;;;;;27.70;14.07;;;;;;;;;;4996503;28;20057;-68
2024/02/13 07:39:59;;;;;;;24.48;12.68;;;;;;;;;;4985823;28;20093;-70
2024/02/13 07:42:27;;;;;;;29.00;12.13;;;;;;;;;;4981124;28;20422;-69
2024/02/13 07:44:54;;;;;;;25.98;11.52;;;;;;;;;;4995941;28;20126;-69
2024/02/13 07:47:22;;;;;;;21.75;11.75;;;;;;;;;;4981134;28;20129;-69
2024/02/13 07:49:50;;;;;;;29.73;12.02;;;;;;;;;;4984645;28;20057;-69
2024/02/13 07:52:17;;;;;;;29.25;11.18;;;;;;;;;;4984235;28;20056;-70
2024/02/13 07:54:44;;;;;;;23.75;11.15;;;;;;;;;;4984532;28;20096;-70
2024/02/13 07:57:12;;;;;;;23.35;10.85;;;;;;;;;;5000668;28;20041;-70
2024/02/13 07:59:38;;;;;;;22.83;10.93;;;;;;;;;;5004080;28;20034;-70
2024/02/13 08:02:04;;;;;;;26.65;10.60;;;;;;;;;;4985064;28;20483;-70
2024/02/13 08:04:31;;;;;;;22.92;10.73;;;;;;;;;;4994714;28;20049;-70
2024/02/13 08:07:00;;;;;;;24.90;11.07;;;;;;;;;;4979919;28;20133;-70
2024/02/13 08:09:26;;;;;;;27.05;11.68;;;;;;;;;;4984763;28;20053;-69
2024/02/13 08:11:53;;;;;;;27.08;10.13;;;;;;;;;;4984217;28;20048;-69
2024/02/13 08:14:20;;;;;;;25.42;10.68;;;;;;;;;;4992006;28;20148;-68
2024/02/13 08:16:46;;;;;;;27.35;11.68;;;;;;;;;;4988328;28;20095;-69
2024/02/13 08:19:12;;;;;;;31.75;10.88;;;;;;;;;;4999312;28;20042;-70
2024/02/13 08:21:38;;;;;;;27.80;11.90;;;;;;;;;;4997084;28;20397;-68
2024/02/13 08:24:06;;;;;;;28.48;11.05;;;;;;;;;;4994316;28;20470;-68
2024/02/13 08:26:36;;;;;;;30.33;11.15;;;;;;;;;;4985679;28;20105;-68
2024/02/13 08:29:04;;;;;;;25.55;12.07;;;;;;;;;;4994212;28;20038;-68
2024/02/13 08:31:30;;;;;;;25.23;11.52;;;;;;;;;;5008766;28;20519;-68
2024/02/13 08:33:57;;;;;;;29.60;11.70;;;;;;;;;;4985622;28;20068;-68
2024/02/13 08:36:24;;;;;;;31.38;10.60;;;;;;;;;;4994408;28;20125;-68
2024/02/13 08:38:51;;;;;;;24.75;10.93;;;;;;;;;;4986676;28;20052;-68
2024/02/13 08:41:18;;;;;;;35.83;11.88;;;;;;;;;;4985998;28;20061;-68
2024/02/13 08:43:45;;;;;;;28.50;11.10;;;;;;;;;;5000156;28;20101;-67
2024/02/13 08:46:13;;;;;;;28.35;12.63;;;;;;;;;;4999265;28;20046;-67
2024/02/13 08:48:39;;;;;;;27.00;11.15;;;;;;;;;;5000402;28;20475;-67
2024/02/13 08:51:05;;;;;;;21.42;11.68;;;;;;;;;;4985836;28;21261;-67
2024/02/13 08:53:33;;;;;;;31.92;13.90;;;;;;;;;;4992182;28;20053;-67
2024/02/13 08:55:59;;;;;;;26.98;11.40;;;;;;;;;;5001570;28;20046;-67
2024/02/13 08:58:26;;;;;;;30.73;11.27;;;;;;;;;;4998973;28;20125;-67
2024/02/13 09:00:52;;;;;;;25.70;12.68;;;;;;;;;;4998059;28;20506;-68
2024/02/13 09:03:18;;;;;;;33.95;12.80;;;;;;;;;;4995323;28;20069;-67
2024/02/13 09:05:44;;;;;;;24.52;11.15;;;;;;;;;;4996379;28;20033;-67
2024/02/13 09:08:10;;;;;;;28.58;11.45;;;;;;;;;;4990588;28;20510;-67
2024/02/13 09:10:37;;;;;;;29.35;11.18;;;;;;;;;;5001323;28;20045;-68
2024/02/13 09:13:03;;;;;;;33.65;11.32;;;;;;;;;;4985564;28;20046;-67
2024/02/13 09:15:30;;;;;;;26.48;10.98;;;;;;;;;;4998977;28;20049;-67
2024/02/13 09:17:56;;;;;;;20.95;9.35;;;;;;;;;;5009469;28;20086;-67
2024/02/13 09:20:23;;;;;;;31.65;9.82;;;;;;;;;;4991429;28;20049;-67
2024/02/13 09:22:50;;;;;;;34.70;11.10;;;;;;;;;;4993498;28;20197;-68
2024/02/13 09:25:16;;;;;;;34.53;9.88;;;;;;;;;;4988727;28;20041;-67
2024/02/13 09:27:43;;;;;;;25.95;10.73;;;;;;;;;;5004885;28;20505;-67
2024/02/13 09:30:12;;;;;;;21.13;8.65;;;;;;;;;;5006525;28;20053;-67
2024/02/13 09:32:38;;;;;;;28.30;9.07;;;;;;;;;;5004537;28;20413;-68
2024/02/13 09:35:04;;;;;;;29.02;8.63;;;;;;;;;;4987351;28;20545;-68
2024/02/13 09:37:31;;;;;;;27.88;9.18;;;;;;;;;;4997101;28;20087;-67
2024/02/13 09:39:57;;;;;;;22.25;8.35;;;;;;;;;;4977307;28;20478;-67
2024/02/13 09:42:24;;;;;;;29.98;9.30;;;;;;;;;;5008636;28;20045;-67
2024/02/13 09:44:52;;;;;;;30.00;8.65;;;;;;;;;;4998290;28;20053;-67
2024/02/13 09:47:18;;;;;;;24.60;8.43;;;;;;;;;;4994307;28;20057;-67
2024/02/13 09:49:47;;;;;;;33.22;9.73;;;;;;;;;;4993217;28;20038;-68
2024/02/13 09:52:14;;;;;;;35.47;9.23;;;;;;;;;;4990869;28;20136;-68
2024/02/13 09:54:44;;;;;;;22.02;8.20;;;;;;;;;;5000490;28;20038;-68
2024/02/13 09:57:11;;;;;;;23.63;7.85;;;;;;;;;;5002719;28;20129;-67
2024/02/13 09:59:37;;;;;;;23.15;7.60;;;;;;;;;;4998087;28;20121;-68
2024/02/13 10:02:05;;;;;;;23.08;7.55;;;;;;;;;;5000528;28;20390;-67
2024/02/13 10:04:31;;;;;;;29.08;7.28;;;;;;;;;;4993383;28;20057;-67
2024/02/13 10:07:01;;;;;;;21.88;8.13;;;;;;;;;;5007247;28;20046;-68
2024/02/13 10:09:32;;;;;;;23.10;7.95;;;;;;;;;;4991111;28;20049;-68
2024/02/13 10:11:58;;;;;;;17.38;5.22;;;;;;;;;;5005475;28;20046;-68
2024/02/13 10:14:25;;;;;;;22.80;7.30;;;;;;;;;;5003774;28;20056;-67
2024/02/13 10:16:54;;;;;;;18.00;6.20;;;;;;;;;;5002676;28;20046;-67
2024/02/13 10:19:21;;;;;;;22.52;5.38;;;;;;;;;;5000791;28;20059;-67
2024/02/13 10:21:51;;;;;;;21.15;5.40;;;;;;;;;;4981029;28;20061;-68
2024/02/13 10:24:17;;;;;;;25.70;5.97;;;;;;;;;;4988778;28;20053;-67
2024/02/13 10:26:44;;;;;;;20.70;6.00;;;;;;;;;;4989820;28;20113;-68
2024/02/13 10:29:10;;;;;;;20.70;4.38;;;;;;;;;;5002615;28;20046;-67
2024/02/13 10:31:37;;;;;;;18.85;5.57;;;;;;;;;;4999148;28;20128;-68
2024/02/13 10:34:04;;;;;;;19.23;4.90;;;;;;;;;;5000147;28;20652;-68
2024/02/13 10:36:32;;;;;;;19.23;5.57;;;;;;;;;;4989617;28;20054;-68
2024/02/13 10:39:03;;;;;;;20.10;4.40;;;;;;;;;;4988930;28;20054;-68
2024/02/13 10:41:33;;;;;;;17.20;4.53;;;;;;;;;;4998528;28;20061;-68
2024/02/13 10:44:00;;;;;;;18.65;4.72;;;;;;;;;;4984919;28;20463;-67
2024/02/13 10:46:28;;;;;;;17.67;4.38;;;;;;;;;;5001353;28;20482;-67
2024/02/13 10:48:57;;;;;;;17.90;3.65;;;;;;;;;;4996136;28;20091;-67
2024/02/13 10:51:25;;;;;;;16.30;5.18;;;;;;;;;;4990263;28;20046;-67
2024/02/13 10:53:51;;;;;;;19.45;4.72;;;;;;;;;;4988564;28;20148;-68
2024/02/13 10:56:18;;;;;;;15.40;4.32;;;;;;;;;;4991749;28;20099;-68
2024/02/13 10:58:46;;;;;;;19.13;3.53;;;;;;;;;;5003631;28;20041;-67
2024/02/13 11:01:15;;;;;;;20.48;4.82;;;;;;;;;;4997579;28;20491;-68
2024/02/13 11:03:43;;;;;;;12.30;3.63;;;;;;;;;;4997459;28;20517;-67
2024/02/13 11:06:10;;;;;;;18.20;4.50;;;;;;;;;;4989355;28;20033;-67
2024/02/13 11:08:37;;;;;;;16.38;4.85;;;;;;;;;;4985620;28;20046;-67
2024/02/13 11:11:13;;;;;;;24.50;4.15;;;;;;;;;;4996244;28;20070;-68
2024/02/13 11:13:40;;;;;;;20.02;4.53;;;;;;;;;;4995020;28;20050;-67
2024/02/13 11:16:09;;;;;;;13.38;3.65;;;;;;;;;;4996865;28;20034;-67
2024/02/13 11:18:36;;;;;;;14.98;4.82;;;;;;;;;;4964898;28;20446;-67
2024/02/13 11:21:08;;;;;;;14.38;3.88;;;;;;;;;;4987910;28;20037;-68
2024/02/13 11:23:35;;;;;;;17.25;4.50;;;;;;;;;;4989631;28;20041;-68
2024/02/13 11:26:02;;;;;;;14.70;3.72;;;;;;;;;;4984902;28;20520;-68
2024/02/13 11:28:32;;;;;;;19.90;3.83;;;;;;;;;;4994479;28;20505;-68
2024/02/13 11:30:59;;;;;;;13.23;3.20;;;;;;;;;;4994199;28;20054;-68
2024/02/13 11:33:25;;;;;;;12.40;3.17;;;;;;;;;;4998868;28;20057;-68
2024/02/13 11:35:58;;;;;;;13.13;3.60;;;;;;;;;;4982714;28;20046;-67
2024/02/13 11:38:26;;;;;;;14.15;3.28;;;;;;;;;;4992508;28;20118;-67
2024/02/13 11:40:55;;;;;;;18.13;3.40;;;;;;;;;;4992067;28;20050;-67
2024/02/13 11:43:24;;;;;;;13.98;4.55;;;;;;;;;;4990699;28;20099;-68
2024/02/13 11:45:50;;;;;;;13.45;3.00;;;;;;;;;;4991814;28;20542;-68
2024/02/13 11:48:17;;;;;;;15.77;3.50;;;;;;;;;;5011261;28;20615;-68
2024/02/13 11:50:43;;;;;;;14.63;3.42;;;;;;;;;;4995171;28;20048;-68
2024/02/13 11:53:11;;;;;;;19.88;3.65;;;;;;;;;;5007125;28;20053;-67
2024/02/13 11:55:38;;;;;;;16.65;3.92;;;;;;;;;;5005744;28;20175;-67
2024/02/13 11:58:06;;;;;;;15.38;3.30;;;;;;;;;;4993520;28;20486;-67
2024/02/13 12:00:32;;;;;;;16.77;3.80;;;;;;;;;;5000484;28;20053;-68
2024/02/13 12:02:59;;;;;;;14.07;3.50;;;;;;;;;;4995399;28;20477;-67
2024/02/13 12:05:26;;;;;;;17.27;4.47;;;;;;;;;;4990463;28;20035;-67
2024/02/13 12:07:53;;;;;;;14.68;2.78;;;;;;;;;;4993051;28;20058;-67
2024/02/13 12:10:19;;;;;;;10.80;3.05;;;;;;;;;;5001410;28;20113;-71
2024/02/13 12:12:46;;;;;;;10.45;2.80;;;;;;;;;;5002220;28;20045;-67
2024/02/13 12:15:15;;;;;;;16.42;2.55;;;;;;;;;;5001595;28;20084;-67
2024/02/13 12:17:43;;;;;;;12.75;2.53;;;;;;;;;;4990139;28;20046;-68
2024/02/13 12:20:19;;;;;;;12.98;1.88;;;;;;;;;;4966919;28;20104;-68
2024/02/13 12:22:45;;;;;;;12.98;2.30;;;;;;;;;;4983863;28;20120;-69
2024/02/13 12:25:12;;;;;;;16.83;2.65;;;;;;;;;;4995151;28;20053;-68
2024/02/13 12:27:38;;;;;;;17.30;2.42;;;;;;;;;;4987755;28;21637;-68
2024/02/13 12:30:05;;;;;;;13.45;2.30;;;;;;;;;;4988719;28;20794;-68
2024/02/13 12:32:34;;;;;;;18.10;2.33;;;;;;;;;;4995926;28;20129;-67
2024/02/13 12:35:11;;;;;;;15.30;2.80;;;;;;;;;;4979232;28;20134;-68
2024/02/13 12:37:40;;;;;;;14.55;2.10;;;;;;;;;;4995171;28;20050;-67
2024/02/13 12:40:16;;;;;;;9.32;2.15;;;;;;;;;;4982751;28;20042;-67
2024/02/13 12:42:43;;;;;;;13.15;2.13;;;;;;;;;;4980180;28;20056;-67
2024/02/13 12:45:10;;;;;;;14.57;2.65;;;;;;;;;;4985334;28;20482;-67
2024/02/13 12:47:37;;;;;;;18.98;3.30;;;;;;;;;;4995535;28;20042;-67
2024/02/13 12:50:03;;;;;;;13.82;2.17;;;;;;;;;;4978012;28;20715;-67
2024/02/13 12:52:29;;;;;;;21.33;3.85;;;;;;;;;;4984680;28;20128;-68
2024/02/13 12:54:58;;;;;;;11.95;2.28;;;;;;;;;;4993050;28;20034;-68
2024/02/13 12:57:29;;;;;;;15.65;2.25;;;;;;;;;;4982126;28;20057;-67
2024/02/13 12:59:56;;;;;;;9.43;2.13;;;;;;;;;;4980149;28;20050;-67
2024/02/13 13:02:25;;;;;;;14.00;2.22;;;;;;;;;;4977911;28;20410;-68
2024/02/13 13:04:52;;;;;;;16.08;2.58;;;;;;;;;;4985412;28;20110;-68
2024/02/13 13:07:19;;;;;;;15.98;2.40;;;;;;;;;;4981893;28;20042;-68
2024/02/13 13:09:46;;;;;;;17.67;3.08;;;;;;;;;;4993885;28;20443;-67
2024/02/13 13:12:15;;;;;;;17.52;2.70;;;;;;;;;;4980753;28;20078;-67
2024/02/13 13:14:44;;;;;;;14.70;2.20;;;;;;;;;;4994040;28;20145;-67
2024/02/13 13:17:11;;;;;;;9.15;2.00;;;;;;;;;;4980635;28;20492;-67
2024/02/13 13:19:37;;;;;;;12.70;2.10;;;;;;;;;;4982365;28;21472;-68
2024/02/13 13:22:03;;;;;;;11.63;2.00;;;;;;;;;;4982900;28;20053;-67
2024/02/13 13:24:31;;;;;;;14.65;2.53;;;;;;;;;;4991276;28;20053;-67
2024/02/13 13:26:57;;;;;;;13.15;3.22;;;;;;;;;;4994723;28;20446;-68
2024/02/13 13:29:24;;;;;;;11.55;2.00;;;;;;;;;;4977737;28;20081;-67
2024/02/13 13:31:51;;;;;;;9.68;1.83;;;;;;;;;;4993740;28;20088;-71
2024/02/13 13:34:22;;;;;;;13.05;2.75;;;;;;;;;;4995666;28;20381;-72
2024/02/13 13:36:49;;;;;;;14.70;4.10;;;;;;;;;;4978055;28;20056;-73
2024/02/13 13:39:16;;;;;;;13.88;2.47;;;;;;;;;;4993505;28;21209;-72
2024/02/13 13:41:43;;;;;;;20.05;2.35;;;;;;;;;;4994333;28;20089;-71
2024/02/13 13:44:10;;;;;;;14.32;2.35;;;;;;;;;;4996504;28;20046;-76
2024/02/13 13:46:36;;;;;;;14.43;2.88;;;;;;;;;;4992888;28;20128;-70
2024/02/13 13:49:04;;;;;;;13.63;2.10;;;;;;;;;;4980838;28;20061;-70
2024/02/13 13:51:30;;;;;;;13.70;2.50;;;;;;;;;;4993628;28;20640;-70
2024/02/13 13:53:56;;;;;;;18.48;2.83;;;;;;;;;;4977709;28;21486;-70
2024/02/13 13:56:23;;;;;;;11.93;2.05;;;;;;;;;;4991336;28;20129;-69
2024/02/13 13:58:49;;;;;;;18.10;4.10;;;;;;;;;;4994328;28;20128;-69
2024/02/13 14:01:16;;;;;;;11.73;3.33;;;;;;;;;;4992509;28;20055;-70
2024/02/13 14:03:43;;;;;;;11.20;2.30;;;;;;;;;;4998323;28;20045;-70
2024/02/13 14:06:09;;;;;;;16.25;2.53;;;;;;;;;;4985985;28;20148;-70
2024/02/13 14:08:38;;;;;;;21.13;2.70;;;;;;;;;;4988844;28;20057;-69
2024/02/13 14:11:05;;;;;;;9.48;2.20;;;;;;;;;;4985400;28;20500;-69
2024/02/13 14:13:31;;;;;;;13.80;3.13;;;;;;;;;;4967139;28;22085;-69
2024/02/13 14:15:58;;;;;;;11.52;2.83;;;;;;;;;;4998238;28;20037;-70
2024/02/13 14:18:26;;;;;;;26.23;3.85;;;;;;;;;;4986105;28;20053;-69
2024/02/13 14:20:53;;;;;;;15.80;3.28;;;;;;;;;;4997693;28;20072;-69
2024/02/13 14:23:20;;;;;;;12.68;2.92;;;;;;;;;;4976397;28;20133;-69
2024/02/13 14:25:49;;;;;;;17.33;3.40;;;;;;;;;;4984586;28;20041;-69